CYVR/YVR METAR and TAF weather

Enter ICAO airport designator
Station Type Date Time Source
CYVR METAR 2018/01/22 20:00 UTC NOAA

CYVR 222000Z 20010KT 20SM FEW015 FEW058 BKN250 08/05 A3018 RMK CU1SC1CS3 CONTRAILS SLP222


Station Type Date Time Source
CYVR Decoded METAR 2018/01/22 20:00 UTC NOAA

Vancouver International Air-Port, B. C., Canada (CYVR) 49-11N 123-10W 2M
Jan 22, 2018 - 03:00 PM EST / 2018.01.22 2000 UTC
Wind: from the SSW (200 degrees) at 12 MPH (10 KT):0
Visibility: 20 mile(s):0
Sky conditions: mostly cloudy
Temperature: 46 F (8 C)
Dew Point: 41 F (5 C)
Relative Humidity: 81%
Pressure (altimeter): 30.18 in. Hg (1022 hPa)
ob: CYVR 222000Z 20010KT 20SM FEW015 FEW058 BKN250 08/05 A3018 RMK CU1SC1CS3 CONTRAILS SLP222
cycle: 20

Station Type Date Time Source
CYVR TAF 2018/01/22 18:39 UTC NOAA

TAF CYVR 221738Z 2218/2324 17010KT P6SM SCT030 BKN060
TEMPO 2218/2303 P6SM -SHRA
BECMG 2223/2301 08008KT
FM230300 08008KT P6SM FEW015 BKN030
FM230800 10010KT P6SM -SHRA SCT015 BKN030
FM231500 08015KT P6SM -RA OVC015
RMK NXT FCST BY 222100Z


Example: see airport list